KBYH/BYH METAR and TAF weather

Enter ICAO airport designator
Station Type Date Time Source
KBYH METAR 2018/04/26 14:50 UTC NOAA

KBYH 261450Z 03010KT 5SM BR BKN008 BKN035 OVC060 14/13 A2988


Station Type Date Time Source
KBYH Decoded METAR 2018/04/26 14:50 UTC NOAA

Eaker Air Force Base, AR, United States (KBYH) 35-58N 089-57W
Apr 26, 2018 - 10:50 AM EDT / 2018.04.26 1450 UTC
Wind: from the NNE (030 degrees) at 12 MPH (10 KT):0
Visibility: 5 mile(s):0
Sky conditions: overcast
Weather: mist
Temperature: 57 F (14 C)
Dew Point: 55 F (13 C)
Relative Humidity: 93%
Pressure (altimeter): 29.88 in. Hg (1011 hPa)
ob: KBYH 261450Z 03010KT 5SM BR BKN008 BKN035 OVC060 14/13 A2988
cycle: 15

Station Type Date Time Source
KBYH TAF UTC NOAA

Error!


Example: see airport list